sensor_id;sensor_type;location;lat;lon;timestamp;temperature;humidity
29777;DHT22;16677;52.224;7.484;2024-02-21T00:02:22;9.30;1.00
29777;DHT22;16677;52.224;7.484;2024-02-21T00:04:49;9.30;1.00
29777;DHT22;16677;52.224;7.484;2024-02-21T00:07:17;9.40;1.00
29777;DHT22;16677;52.224;7.484;2024-02-21T00:09:43;9.30;1.00
29777;DHT22;16677;52.224;7.484;2024-02-21T00:12:10;9.40;1.00
29777;DHT22;16677;52.224;7.484;2024-02-21T00:14:37;9.40;1.00
29777;DHT22;16677;52.224;7.484;2024-02-21T00:17:04;9.30;1.00
29777;DHT22;16677;52.224;7.484;2024-02-21T00:19:31;9.30;1.00
29777;DHT22;16677;52.224;7.484;2024-02-21T00:21:58;9.40;58.00
29777;DHT22;16677;52.224;7.484;2024-02-21T00:24:24;9.40;1.00
29777;DHT22;16677;52.224;7.484;2024-02-21T00:26:53;9.40;1.00
29777;DHT22;16677;52.224;7.484;2024-02-21T00:29:20;9.30;1.00
29777;DHT22;16677;52.224;7.484;2024-02-21T00:31:47;9.40;1.00
29777;DHT22;16677;52.224;7.484;2024-02-21T00:34:14;9.50;1.00
29777;DHT22;16677;52.224;7.484;2024-02-21T00:36:41;9.40;1.00
29777;DHT22;16677;52.224;7.484;2024-02-21T00:39:08;9.40;13.50
29777;DHT22;16677;52.224;7.484;2024-02-21T00:41:35;9.40;1.00
29777;DHT22;16677;52.224;7.484;2024-02-21T00:44:02;9.40;27.00
29777;DHT22;16677;52.224;7.484;2024-02-21T00:46:29;9.40;1.00
29777;DHT22;16677;52.224;7.484;2024-02-21T00:48:55;9.50;1.00
29777;DHT22;16677;52.224;7.484;2024-02-21T00:51:22;9.40;1.00
29777;DHT22;16677;52.224;7.484;2024-02-21T00:53:49;9.40;15.30
29777;DHT22;16677;52.224;7.484;2024-02-21T00:56:16;9.40;1.00
29777;DHT22;16677;52.224;7.484;2024-02-21T00:58:43;9.40;10.20
29777;DHT22;16677;52.224;7.484;2024-02-21T01:01:09;9.40;1.00
29777;DHT22;16677;52.224;7.484;2024-02-21T01:03:39;9.40;1.00
29777;DHT22;16677;52.224;7.484;2024-02-21T01:06:05;9.50;1.00
29777;DHT22;16677;52.224;7.484;2024-02-21T01:08:33;9.40;1.00
29777;DHT22;16677;52.224;7.484;2024-02-21T01:11:00;9.40;1.00
29777;DHT22;16677;52.224;7.484;2024-02-21T01:13:27;9.40;1.00
29777;DHT22;16677;52.224;7.484;2024-02-21T01:15:54;9.50;1.00
29777;DHT22;16677;52.224;7.484;2024-02-21T01:18:21;9.40;1.00
29777;DHT22;16677;52.224;7.484;2024-02-21T01:20:48;9.40;1.00
29777;DHT22;16677;52.224;7.484;2024-02-21T01:23:15;9.40;1.00
29777;DHT22;16677;52.224;7.484;2024-02-21T01:25:41;9.40;76.70
29777;DHT22;16677;52.224;7.484;2024-02-21T01:28:09;9.40;31.90
29777;DHT22;16677;52.224;7.484;2024-02-21T01:30:35;9.40;1.00
29777;DHT22;16677;52.224;7.484;2024-02-21T01:33:02;9.50;1.00
29777;DHT22;16677;52.224;7.484;2024-02-21T01:35:30;9.40;1.00
29777;DHT22;16677;52.224;7.484;2024-02-21T01:37:57;9.40;1.00
29777;DHT22;16677;52.224;7.484;2024-02-21T01:40:24;9.40;99.90
29777;DHT22;16677;52.224;7.484;2024-02-21T01:42:50;9.40;1.00
29777;DHT22;16677;52.224;7.484;2024-02-21T01:45:20;9.50;1.00
29777;DHT22;16677;52.224;7.484;2024-02-21T01:47:47;9.40;5.00
29777;DHT22;16677;52.224;7.484;2024-02-21T01:50:14;9.40;1.00
29777;DHT22;16677;52.224;7.484;2024-02-21T01:52:42;9.40;1.00
29777;DHT22;16677;52.224;7.484;2024-02-21T01:55:10;9.40;1.00
29777;DHT22;16677;52.224;7.484;2024-02-21T01:57:37;9.50;1.00
29777;DHT22;16677;52.224;7.484;2024-02-21T02:00:04;9.40;1.00
29777;DHT22;16677;52.224;7.484;2024-02-21T02:02:31;9.40;1.00
29777;DHT22;16677;52.224;7.484;2024-02-21T02:04:58;9.40;18.00
29777;DHT22;16677;52.224;7.484;2024-02-21T02:07:26;9.40;99.90
29777;DHT22;16677;52.224;7.484;2024-02-21T02:09:53;9.40;1.00
29777;DHT22;16677;52.224;7.484;2024-02-21T02:12:20;9.40;1.00
29777;DHT22;16677;52.224;7.484;2024-02-21T02:14:57;9.50;1.00
29777;DHT22;16677;52.224;7.484;2024-02-21T02:17:23;9.40;1.00
29777;DHT22;16677;52.224;7.484;2024-02-21T02:19:50;9.40;1.00
29777;DHT22;16677;52.224;7.484;2024-02-21T02:22:19;9.40;1.00
29777;DHT22;16677;52.224;7.484;2024-02-21T02:24:49;9.40;1.00
29777;DHT22;16677;52.224;7.484;2024-02-21T02:27:15;9.40;1.00
29777;DHT22;16677;52.224;7.484;2024-02-21T02:29:42;9.50;1.00
29777;DHT22;16677;52.224;7.484;2024-02-21T02:32:09;9.50;1.00
29777;DHT22;16677;52.224;7.484;2024-02-21T02:34:36;9.50;1.00
29777;DHT22;16677;52.224;7.484;2024-02-21T02:37:03;9.50;1.00
29777;DHT22;16677;52.224;7.484;2024-02-21T02:39:29;9.50;1.00
29777;DHT22;16677;52.224;7.484;2024-02-21T02:41:56;9.40;1.00
29777;DHT22;16677;52.224;7.484;2024-02-21T02:44:23;9.40;1.00
29777;DHT22;16677;52.224;7.484;2024-02-21T02:46:50;9.50;1.00
29777;DHT22;16677;52.224;7.484;2024-02-21T02:49:17;9.40;1.00
29777;DHT22;16677;52.224;7.484;2024-02-21T02:51:44;9.40;1.00
29777;DHT22;16677;52.224;7.484;2024-02-21T02:54:11;9.30;19.30
29777;DHT22;16677;52.224;7.484;2024-02-21T02:56:38;9.40;31.90
29777;DHT22;16677;52.224;7.484;2024-02-21T02:59:05;9.40;1.00
29777;DHT22;16677;52.224;7.484;2024-02-21T03:01:34;9.40;12.40
29777;DHT22;16677;52.224;7.484;2024-02-21T03:04:02;9.40;1.00
29777;DHT22;16677;52.224;7.484;2024-02-21T03:06:29;9.40;16.50
29777;DHT22;16677;52.224;7.484;2024-02-21T03:08:56;9.40;1.00
29777;DHT22;16677;52.224;7.484;2024-02-21T03:11:23;9.30;47.90
29777;DHT22;16677;52.224;7.484;2024-02-21T03:13:56;9.30;99.90
29777;DHT22;16677;52.224;7.484;2024-02-21T03:16:26;9.30;99.90
29777;DHT22;16677;52.224;7.484;2024-02-21T03:18:52;9.30;99.90
29777;DHT22;16677;52.224;7.484;2024-02-21T03:21:19;9.40;99.90
29777;DHT22;16677;52.224;7.484;2024-02-21T03:23:46;9.50;1.00
29777;DHT22;16677;52.224;7.484;2024-02-21T03:26:13;9.40;1.00
29777;DHT22;16677;52.224;7.484;2024-02-21T03:29:04;9.40;99.90
29777;DHT22;16677;52.224;7.484;2024-02-21T03:31:31;9.40;1.00
29777;DHT22;16677;52.224;7.484;2024-02-21T03:33:58;9.40;1.00
29777;DHT22;16677;52.224;7.484;2024-02-21T03:36:25;9.50;1.00
29777;DHT22;16677;52.224;7.484;2024-02-21T03:38:51;9.50;1.00
29777;DHT22;16677;52.224;7.484;2024-02-21T03:41:18;9.40;1.00
29777;DHT22;16677;52.224;7.484;2024-02-21T03:43:48;9.30;44.90
29777;DHT22;16677;52.224;7.484;2024-02-21T03:46:15;9.30;35.50
29777;DHT22;16677;52.224;7.484;2024-02-21T03:48:42;9.30;99.90
29777;DHT22;16677;52.224;7.484;2024-02-21T03:51:09;9.20;99.90
29777;DHT22;16677;52.224;7.484;2024-02-21T03:53:35;9.30;99.90
29777;DHT22;16677;52.224;7.484;2024-02-21T03:56:02;9.40;99.90
29777;DHT22;16677;52.224;7.484;2024-02-21T03:58:30;9.30;1.00
29777;DHT22;16677;52.224;7.484;2024-02-21T04:00:59;9.40;99.90
29777;DHT22;16677;52.224;7.484;2024-02-21T04:03:26;9.40;1.00
29777;DHT22;16677;52.224;7.484;2024-02-21T04:05:53;9.30;50.20
29777;DHT22;16677;52.224;7.484;2024-02-21T04:08:21;9.30;99.90
29777;DHT22;16677;52.224;7.484;2024-02-21T04:10:47;9.30;99.90
29777;DHT22;16677;52.224;7.484;2024-02-21T04:13:14;9.30;99.90
29777;DHT22;16677;52.224;7.484;2024-02-21T04:15:41;9.30;99.90
29777;DHT22;16677;52.224;7.484;2024-02-21T04:18:08;9.30;99.90
29777;DHT22;16677;52.224;7.484;2024-02-21T04:20:35;9.30;99.90
29777;DHT22;16677;52.224;7.484;2024-02-21T04:23:02;9.30;1.00
29777;DHT22;16677;52.224;7.484;2024-02-21T04:25:29;9.40;1.00
29777;DHT22;16677;52.224;7.484;2024-02-21T04:27:56;9.40;7.70
29777;DHT22;16677;52.224;7.484;2024-02-21T04:30:23;9.20;1.00
29777;DHT22;16677;52.224;7.484;2024-02-21T04:32:49;9.20;1.00
29777;DHT22;16677;52.224;7.484;2024-02-21T04:35:16;9.20;99.90
29777;DHT22;16677;52.224;7.484;2024-02-21T04:37:43;9.10;99.90
29777;DHT22;16677;52.224;7.484;2024-02-21T04:40:11;9.20;99.90
29777;DHT22;16677;52.224;7.484;2024-02-21T04:42:38;9.10;99.90
29777;DHT22;16677;52.224;7.484;2024-02-21T04:45:06;9.20;99.90
29777;DHT22;16677;52.224;7.484;2024-02-21T04:47:33;9.20;90.50
29777;DHT22;16677;52.224;7.484;2024-02-21T04:50:00;9.20;99.90
29777;DHT22;16677;52.224;7.484;2024-02-21T04:52:27;9.20;16.40
29777;DHT22;16677;52.224;7.484;2024-02-21T04:54:54;9.20;1.00
29777;DHT22;16677;52.224;7.484;2024-02-21T04:57:20;9.20;1.00
29777;DHT22;16677;52.224;7.484;2024-02-21T04:59:47;9.20;1.00
29777;DHT22;16677;52.224;7.484;2024-02-21T05:02:14;9.30;99.90
29777;DHT22;16677;52.224;7.484;2024-02-21T05:04:44;9.20;99.90
29777;DHT22;16677;52.224;7.484;2024-02-21T05:07:11;9.20;99.90
29777;DHT22;16677;52.224;7.484;2024-02-21T05:09:38;9.30;1.00
29777;DHT22;16677;52.224;7.484;2024-02-21T05:12:05;9.20;1.00
29777;DHT22;16677;52.224;7.484;2024-02-21T05:14:32;9.20;99.90
29777;DHT22;16677;52.224;7.484;2024-02-21T05:16:59;9.20;99.90
29777;DHT22;16677;52.224;7.484;2024-02-21T05:19:26;9.20;99.90
29777;DHT22;16677;52.224;7.484;2024-02-21T05:21:53;9.10;99.90
29777;DHT22;16677;52.224;7.484;2024-02-21T05:24:20;9.20;99.90
29777;DHT22;16677;52.224;7.484;2024-02-21T05:26:46;9.20;99.90
29777;DHT22;16677;52.224;7.484;2024-02-21T05:29:13;9.20;99.90
29777;DHT22;16677;52.224;7.484;2024-02-21T05:34:19;9.30;99.90
29777;DHT22;16677;52.224;7.484;2024-02-21T05:36:47;9.20;99.90
29777;DHT22;16677;52.224;7.484;2024-02-21T05:39:16;9.30;99.90
29777;DHT22;16677;52.224;7.484;2024-02-21T05:41:44;9.20;99.90
29777;DHT22;16677;52.224;7.484;2024-02-21T05:44:11;9.20;99.90
29777;DHT22;16677;52.224;7.484;2024-02-21T05:46:37;9.30;23.20
29777;DHT22;16677;52.224;7.484;2024-02-21T05:49:04;9.20;1.00
29777;DHT22;16677;52.224;7.484;2024-02-21T05:51:34;9.20;93.70
29777;DHT22;16677;52.224;7.484;2024-02-21T05:54:01;9.20;99.90
29777;DHT22;16677;52.224;7.484;2024-02-21T05:56:28;9.40;99.90
29777;DHT22;16677;52.224;7.484;2024-02-21T05:58:55;9.30;1.00
29777;DHT22;16677;52.224;7.484;2024-02-21T06:01:22;9.30;1.00
29777;DHT22;16677;52.224;7.484;2024-02-21T06:03:49;9.30;1.00
29777;DHT22;16677;52.224;7.484;2024-02-21T06:06:16;9.30;1.00
29777;DHT22;16677;52.224;7.484;2024-02-21T06:08:43;9.30;49.60
29777;DHT22;16677;52.224;7.484;2024-02-21T06:11:10;9.30;1.00
29777;DHT22;16677;52.224;7.484;2024-02-21T06:13:40;9.30;1.00
29777;DHT22;16677;52.224;7.484;2024-02-21T06:16:07;9.30;1.00
29777;DHT22;16677;52.224;7.484;2024-02-21T06:18:35;9.30;1.00
29777;DHT22;16677;52.224;7.484;2024-02-21T06:21:03;9.30;1.00
29777;DHT22;16677;52.224;7.484;2024-02-21T06:23:30;9.20;1.00
29777;DHT22;16677;52.224;7.484;2024-02-21T06:25:57;9.20;1.00
29777;DHT22;16677;52.224;7.484;2024-02-21T06:28:24;9.20;1.00
29777;DHT22;16677;52.224;7.484;2024-02-21T06:30:51;9.20;1.00
29777;DHT22;16677;52.224;7.484;2024-02-21T06:33:17;9.20;1.00
29777;DHT22;16677;52.224;7.484;2024-02-21T06:35:45;9.20;1.00
29777;DHT22;16677;52.224;7.484;2024-02-21T06:38:13;9.20;1.00
29777;DHT22;16677;52.224;7.484;2024-02-21T06:40:42;9.20;1.00
29777;DHT22;16677;52.224;7.484;2024-02-21T06:43:20;9.20;1.00
29777;DHT22;16677;52.224;7.484;2024-02-21T06:45:47;9.20;1.00
29777;DHT22;16677;52.224;7.484;2024-02-21T06:48:17;9.20;1.00
29777;DHT22;16677;52.224;7.484;2024-02-21T06:50:45;9.20;1.00
29777;DHT22;16677;52.224;7.484;2024-02-21T06:53:12;9.30;1.00
29777;DHT22;16677;52.224;7.484;2024-02-21T06:55:39;9.30;1.00
29777;DHT22;16677;52.224;7.484;2024-02-21T06:58:06;9.30;1.00
29777;DHT22;16677;52.224;7.484;2024-02-21T07:00:38;9.30;1.00
29777;DHT22;16677;52.224;7.484;2024-02-21T07:03:05;9.20;1.00
29777;DHT22;16677;52.224;7.484;2024-02-21T07:05:32;9.30;99.90
29777;DHT22;16677;52.224;7.484;2024-02-21T07:07:59;9.20;1.00
29777;DHT22;16677;52.224;7.484;2024-02-21T07:10:26;9.30;1.00
29777;DHT22;16677;52.224;7.484;2024-02-21T07:12:54;9.20;1.00
29777;DHT22;16677;52.224;7.484;2024-02-21T07:15:21;9.20;1.00
29777;DHT22;16677;52.224;7.484;2024-02-21T07:17:48;9.30;1.00
29777;DHT22;16677;52.224;7.484;2024-02-21T07:20:15;9.30;99.90
29777;DHT22;16677;52.224;7.484;2024-02-21T07:22:42;9.30;99.90
29777;DHT22;16677;52.224;7.484;2024-02-21T07:25:09;9.30;99.90
29777;DHT22;16677;52.224;7.484;2024-02-21T07:27:36;9.30;99.90
29777;DHT22;16677;52.224;7.484;2024-02-21T07:30:04;9.30;99.90
29777;DHT22;16677;52.224;7.484;2024-02-21T07:32:31;9.40;99.90
29777;DHT22;16677;52.224;7.484;2024-02-21T07:34:57;9.30;99.90
29777;DHT22;16677;52.224;7.484;2024-02-21T07:37:25;9.40;99.90
29777;DHT22;16677;52.224;7.484;2024-02-21T07:39:51;9.30;99.90
29777;DHT22;16677;52.224;7.484;2024-02-21T07:42:18;9.30;99.90
29777;DHT22;16677;52.224;7.484;2024-02-21T07:44:45;9.40;99.90
29777;DHT22;16677;52.224;7.484;2024-02-21T07:47:13;9.50;99.90
29777;DHT22;16677;52.224;7.484;2024-02-21T07:49:43;9.40;99.90
29777;DHT22;16677;52.224;7.484;2024-02-21T07:52:11;9.30;99.90
29777;DHT22;16677;52.224;7.484;2024-02-21T07:54:38;9.40;99.90
29777;DHT22;16677;52.224;7.484;2024-02-21T07:57:05;9.40;99.90
29777;DHT22;16677;52.224;7.484;2024-02-21T07:59:31;9.50;99.90
29777;DHT22;16677;52.224;7.484;2024-02-21T08:01:58;9.60;1.00
29777;DHT22;16677;52.224;7.484;2024-02-21T08:04:25;9.60;30.70
29777;DHT22;16677;52.224;7.484;2024-02-21T08:06:53;9.60;1.00
29777;DHT22;16677;52.224;7.484;2024-02-21T08:09:20;9.70;1.00
29777;DHT22;16677;52.224;7.484;2024-02-21T08:11:47;9.70;1.00
29777;DHT22;16677;52.224;7.484;2024-02-21T08:14:14;9.60;1.00
29777;DHT22;16677;52.224;7.484;2024-02-21T08:16:46;9.70;1.00
29777;DHT22;16677;52.224;7.484;2024-02-21T08:19:13;9.80;1.00
29777;DHT22;16677;52.224;7.484;2024-02-21T08:21:39;9.80;1.00
29777;DHT22;16677;52.224;7.484;2024-02-21T08:24:06;9.70;1.00
29777;DHT22;16677;52.224;7.484;2024-02-21T08:26:33;9.80;1.00
29777;DHT22;16677;52.224;7.484;2024-02-21T08:29:00;9.80;1.00
29777;DHT22;16677;52.224;7.484;2024-02-21T08:31:27;9.80;1.00
29777;DHT22;16677;52.224;7.484;2024-02-21T08:33:58;9.80;1.00
29777;DHT22;16677;52.224;7.484;2024-02-21T08:38:56;9.80;1.00
29777;DHT22;16677;52.224;7.484;2024-02-21T08:41:24;9.90;1.00
29777;DHT22;16677;52.224;7.484;2024-02-21T08:43:59;10.00;1.00
29777;DHT22;16677;52.224;7.484;2024-02-21T08:46:26;10.00;99.90
29777;DHT22;16677;52.224;7.484;2024-02-21T08:48:55;10.10;99.90
29777;DHT22;16677;52.224;7.484;2024-02-21T08:51:22;10.10;99.90
29777;DHT22;16677;52.224;7.484;2024-02-21T08:53:49;10.20;99.90
29777;DHT22;16677;52.224;7.484;2024-02-21T08:56:16;10.20;99.90
29777;DHT22;16677;52.224;7.484;2024-02-21T08:58:43;10.20;93.10
29777;DHT22;16677;52.224;7.484;2024-02-21T09:01:10;10.20;1.00
29777;DHT22;16677;52.224;7.484;2024-02-21T09:03:37;10.10;99.90
29777;DHT22;16677;52.224;7.484;2024-02-21T09:06:07;10.30;29.30
29777;DHT22;16677;52.224;7.484;2024-02-21T09:08:36;10.40;1.00
29777;DHT22;16677;52.224;7.484;2024-02-21T09:11:03;10.40;1.00
29777;DHT22;16677;52.224;7.484;2024-02-21T09:13:30;10.50;1.00
29777;DHT22;16677;52.224;7.484;2024-02-21T09:15:57;10.50;1.00
29777;DHT22;16677;52.224;7.484;2024-02-21T09:18:23;10.60;1.00
29777;DHT22;16677;52.224;7.484;2024-02-21T09:20:50;10.50;1.00
29777;DHT22;16677;52.224;7.484;2024-02-21T09:23:17;10.60;1.00
29777;DHT22;16677;52.224;7.484;2024-02-21T09:25:46;10.60;1.00
29777;DHT22;16677;52.224;7.484;2024-02-21T09:28:13;10.70;1.00
29777;DHT22;16677;52.224;7.484;2024-02-21T09:30:40;10.80;1.00
29777;DHT22;16677;52.224;7.484;2024-02-21T09:33:07;10.80;1.00
29777;DHT22;16677;52.224;7.484;2024-02-21T09:35:33;10.60;99.90
29777;DHT22;16677;52.224;7.484;2024-02-21T09:38:01;10.60;1.00
29777;DHT22;16677;52.224;7.484;2024-02-21T09:40:28;10.70;1.00
29777;DHT22;16677;52.224;7.484;2024-02-21T09:42:59;10.70;1.00
29777;DHT22;16677;52.224;7.484;2024-02-21T09:45:28;10.50;1.00
29777;DHT22;16677;52.224;7.484;2024-02-21T09:50:25;10.50;1.00
29777;DHT22;16677;52.224;7.484;2024-02-21T09:52:53;10.40;1.00
29777;DHT22;16677;52.224;7.484;2024-02-21T09:55:22;10.50;1.00
29777;DHT22;16677;52.224;7.484;2024-02-21T09:57:49;10.60;1.00
29777;DHT22;16677;52.224;7.484;2024-02-21T10:00:16;10.70;1.00
29777;DHT22;16677;52.224;7.484;2024-02-21T10:02:48;10.70;99.90
29777;DHT22;16677;52.224;7.484;2024-02-21T10:05:16;10.70;1.00
29777;DHT22;16677;52.224;7.484;2024-02-21T10:07:44;10.80;99.90
29777;DHT22;16677;52.224;7.484;2024-02-21T10:10:11;10.80;1.00
29777;DHT22;16677;52.224;7.484;2024-02-21T10:12:47;10.80;99.90
29777;DHT22;16677;52.224;7.484;2024-02-21T10:15:19;10.70;99.90
29777;DHT22;16677;52.224;7.484;2024-02-21T10:17:46;10.60;1.00
29777;DHT22;16677;52.224;7.484;2024-02-21T10:20:12;10.80;1.00
29777;DHT22;16677;52.224;7.484;2024-02-21T10:22:41;10.80;1.00
29777;DHT22;16677;52.224;7.484;2024-02-21T10:25:08;10.70;99.90
29777;DHT22;16677;52.224;7.484;2024-02-21T10:27:38;10.80;1.00
29777;DHT22;16677;52.224;7.484;2024-02-21T10:30:06;10.70;1.00
29777;DHT22;16677;52.224;7.484;2024-02-21T10:32:36;10.70;1.00
29777;DHT22;16677;52.224;7.484;2024-02-21T10:35:03;10.90;99.90
29777;DHT22;16677;52.224;7.484;2024-02-21T10:37:35;10.80;99.90
29777;DHT22;16677;52.224;7.484;2024-02-21T10:40:02;10.80;99.90
29777;DHT22;16677;52.224;7.484;2024-02-21T10:42:31;10.90;99.90
29777;DHT22;16677;52.224;7.484;2024-02-21T10:45:01;11.00;99.90
29777;DHT22;16677;52.224;7.484;2024-02-21T10:47:31;10.80;99.90
29777;DHT22;16677;52.224;7.484;2024-02-21T10:50:02;10.80;99.90
29777;DHT22;16677;52.224;7.484;2024-02-21T10:55:01;11.00;99.90
29777;DHT22;16677;52.224;7.484;2024-02-21T10:57:31;11.10;99.90
29777;DHT22;16677;52.224;7.484;2024-02-21T10:59:58;11.00;99.90
29777;DHT22;16677;52.224;7.484;2024-02-21T11:02:26;11.20;99.90
29777;DHT22;16677;52.224;7.484;2024-02-21T11:04:55;11.10;99.90
29777;DHT22;16677;52.224;7.484;2024-02-21T11:07:22;11.30;99.90
29777;DHT22;16677;52.224;7.484;2024-02-21T11:09:52;11.20;99.90
29777;DHT22;16677;52.224;7.484;2024-02-21T11:12:21;10.90;99.90
29777;DHT22;16677;52.224;7.484;2024-02-21T11:14:48;10.90;99.90
29777;DHT22;16677;52.224;7.484;2024-02-21T11:17:16;10.80;99.90
29777;DHT22;16677;52.224;7.484;2024-02-21T11:19:43;10.90;99.90
29777;DHT22;16677;52.224;7.484;2024-02-21T11:22:14;10.80;99.90
29777;DHT22;16677;52.224;7.484;2024-02-21T11:24:43;10.90;99.90
29777;DHT22;16677;52.224;7.484;2024-02-21T11:27:18;10.70;99.90
29777;DHT22;16677;52.224;7.484;2024-02-21T11:29:54;10.60;1.00
29777;DHT22;16677;52.224;7.484;2024-02-21T11:32:21;10.60;1.00
29777;DHT22;16677;52.224;7.484;2024-02-21T11:37:23;10.70;99.90
29777;DHT22;16677;52.224;7.484;2024-02-21T11:39:51;10.80;99.90
29777;DHT22;16677;52.224;7.484;2024-02-21T11:42:19;10.60;1.00
29777;DHT22;16677;52.224;7.484;2024-02-21T11:44:46;10.70;1.00
29777;DHT22;16677;52.224;7.484;2024-02-21T11:47:14;10.70;99.90
29777;DHT22;16677;52.224;7.484;2024-02-21T11:49:47;10.50;99.90
29777;DHT22;16677;52.224;7.484;2024-02-21T11:52:16;10.60;1.00
29777;DHT22;16677;52.224;7.484;2024-02-21T11:54:47;10.60;1.00
29777;DHT22;16677;52.224;7.484;2024-02-21T11:57:13;10.40;1.00
29777;DHT22;16677;52.224;7.484;2024-02-21T11:59:40;10.40;1.00
29777;DHT22;16677;52.224;7.484;2024-02-21T12:02:07;10.30;1.00
29777;DHT22;16677;52.224;7.484;2024-02-21T12:04:35;10.50;1.00
29777;DHT22;16677;52.224;7.484;2024-02-21T12:07:02;10.60;1.00
29777;DHT22;16677;52.224;7.484;2024-02-21T12:09:31;10.60;1.00
29777;DHT22;16677;52.224;7.484;2024-02-21T12:11:58;10.50;1.00
29777;DHT22;16677;52.224;7.484;2024-02-21T12:14:26;10.50;1.00
29777;DHT22;16677;52.224;7.484;2024-02-21T12:16:53;10.40;1.00
29777;DHT22;16677;52.224;7.484;2024-02-21T12:19:20;10.30;1.00
29777;DHT22;16677;52.224;7.484;2024-02-21T12:21:48;10.40;1.00
29777;DHT22;16677;52.224;7.484;2024-02-21T12:24:22;10.20;1.00
29777;DHT22;16677;52.224;7.484;2024-02-21T12:26:49;10.20;1.00
29777;DHT22;16677;52.224;7.484;2024-02-21T12:29:16;10.20;1.00
29777;DHT22;16677;52.224;7.484;2024-02-21T12:31:43;10.10;1.00
29777;DHT22;16677;52.224;7.484;2024-02-21T12:34:13;10.10;1.00
29777;DHT22;16677;52.224;7.484;2024-02-21T12:36:41;10.20;1.00
29777;DHT22;16677;52.224;7.484;2024-02-21T12:39:10;10.20;1.00
29777;DHT22;16677;52.224;7.484;2024-02-21T12:41:37;10.30;1.00
29777;DHT22;16677;52.224;7.484;2024-02-21T12:44:07;10.50;99.90
29777;DHT22;16677;52.224;7.484;2024-02-21T12:46:34;10.60;99.90
29777;DHT22;16677;52.224;7.484;2024-02-21T12:49:02;10.80;99.90
29777;DHT22;16677;52.224;7.484;2024-02-21T12:51:29;10.80;99.90
29777;DHT22;16677;52.224;7.484;2024-02-21T12:53:57;11.00;1.00
29777;DHT22;16677;52.224;7.484;2024-02-21T12:56:24;10.80;1.00
29777;DHT22;16677;52.224;7.484;2024-02-21T12:58:51;10.90;99.90
29777;DHT22;16677;52.224;7.484;2024-02-21T13:01:18;10.80;1.00
29777;DHT22;16677;52.224;7.484;2024-02-21T13:03:45;10.90;1.00
29777;DHT22;16677;52.224;7.484;2024-02-21T13:06:13;10.90;1.00
29777;DHT22;16677;52.224;7.484;2024-02-21T13:08:40;11.00;1.00
29777;DHT22;16677;52.224;7.484;2024-02-21T13:11:07;11.00;1.00
29777;DHT22;16677;52.224;7.484;2024-02-21T13:13:34;11.10;1.00
29777;DHT22;16677;52.224;7.484;2024-02-21T13:16:01;11.00;1.00
29777;DHT22;16677;52.224;7.484;2024-02-21T13:18:28;10.90;1.00
29777;DHT22;16677;52.224;7.484;2024-02-21T13:20:55;10.90;1.00
29777;DHT22;16677;52.224;7.484;2024-02-21T13:23:22;10.90;1.00
29777;DHT22;16677;52.224;7.484;2024-02-21T13:25:49;10.70;1.00
29777;DHT22;16677;52.224;7.484;2024-02-21T13:28:17;10.70;1.00
29777;DHT22;16677;52.224;7.484;2024-02-21T13:30:44;10.80;1.00
29777;DHT22;16677;52.224;7.484;2024-02-21T13:33:10;10.70;1.00
29777;DHT22;16677;52.224;7.484;2024-02-21T13:35:38;10.70;1.00
29777;DHT22;16677;52.224;7.484;2024-02-21T13:38:05;10.70;99.90
29777;DHT22;16677;52.224;7.484;2024-02-21T13:40:33;10.70;1.00
29777;DHT22;16677;52.224;7.484;2024-02-21T13:42:59;10.80;1.00
29777;DHT22;16677;52.224;7.484;2024-02-21T13:45:27;11.00;1.00
29777;DHT22;16677;52.224;7.484;2024-02-21T13:47:54;11.00;1.00
29777;DHT22;16677;52.224;7.484;2024-02-21T13:50:23;11.00;1.00
29777;DHT22;16677;52.224;7.484;2024-02-21T13:52:55;11.20;1.00
29777;DHT22;16677;52.224;7.484;2024-02-21T13:55:22;11.20;1.00
29777;DHT22;16677;52.224;7.484;2024-02-21T13:57:52;11.20;1.00
29777;DHT22;16677;52.224;7.484;2024-02-21T14:00:19;11.30;1.00
29777;DHT22;16677;52.224;7.484;2024-02-21T14:02:46;11.40;1.00
29777;DHT22;16677;52.224;7.484;2024-02-21T14:05:13;11.40;1.00
29777;DHT22;16677;52.224;7.484;2024-02-21T14:07:41;11.40;1.00
29777;DHT22;16677;52.224;7.484;2024-02-21T14:10:08;11.50;1.00
29777;DHT22;16677;52.224;7.484;2024-02-21T14:12:36;11.40;1.00
29777;DHT22;16677;52.224;7.484;2024-02-21T14:15:04;11.50;1.00
29777;DHT22;16677;52.224;7.484;2024-02-21T14:17:31;11.30;1.00
29777;DHT22;16677;52.224;7.484;2024-02-21T14:19:58;11.50;1.00
29777;DHT22;16677;52.224;7.484;2024-02-21T14:22:25;11.50;1.00
29777;DHT22;16677;52.224;7.484;2024-02-21T14:24:52;11.40;1.00
29777;DHT22;16677;52.224;7.484;2024-02-21T14:27:19;11.30;1.00
29777;DHT22;16677;52.224;7.484;2024-02-21T14:29:46;11.40;1.00
29777;DHT22;16677;52.224;7.484;2024-02-21T14:32:13;11.40;1.00
29777;DHT22;16677;52.224;7.484;2024-02-21T14:34:40;11.40;1.00
29777;DHT22;16677;52.224;7.484;2024-02-21T14:37:06;11.20;1.00
29777;DHT22;16677;52.224;7.484;2024-02-21T14:39:33;11.40;1.00
29777;DHT22;16677;52.224;7.484;2024-02-21T14:42:02;11.40;1.00
29777;DHT22;16677;52.224;7.484;2024-02-21T14:44:29;11.30;1.00
29777;DHT22;16677;52.224;7.484;2024-02-21T14:46:56;11.20;1.00
29777;DHT22;16677;52.224;7.484;2024-02-21T14:49:23;11.20;1.00
29777;DHT22;16677;52.224;7.484;2024-02-21T14:51:51;11.30;1.00
29777;DHT22;16677;52.224;7.484;2024-02-21T14:54:19;11.30;1.00
29777;DHT22;16677;52.224;7.484;2024-02-21T14:56:46;11.30;1.00
29777;DHT22;16677;52.224;7.484;2024-02-21T14:59:13;11.30;1.00
29777;DHT22;16677;52.224;7.484;2024-02-21T15:01:46;11.10;1.00
29777;DHT22;16677;52.224;7.484;2024-02-21T15:04:13;11.10;1.00
29777;DHT22;16677;52.224;7.484;2024-02-21T15:06:40;11.10;1.00
29777;DHT22;16677;52.224;7.484;2024-02-21T15:09:07;11.20;1.00
29777;DHT22;16677;52.224;7.484;2024-02-21T15:11:34;11.20;1.00
29777;DHT22;16677;52.224;7.484;2024-02-21T15:14:01;11.20;1.00
29777;DHT22;16677;52.224;7.484;2024-02-21T15:16:28;11.20;1.00
29777;DHT22;16677;52.224;7.484;2024-02-21T15:18:55;11.20;1.00
29777;DHT22;16677;52.224;7.484;2024-02-21T15:21:22;11.10;53.60
29777;DHT22;16677;52.224;7.484;2024-02-21T15:23:49;11.10;1.00
29777;DHT22;16677;52.224;7.484;2024-02-21T15:26:16;11.00;2.40
29777;DHT22;16677;52.224;7.484;2024-02-21T15:28:44;11.00;11.40
29777;DHT22;16677;52.224;7.484;2024-02-21T15:31:19;11.00;16.80
29777;DHT22;16677;52.224;7.484;2024-02-21T15:33:45;11.00;46.80
29777;DHT22;16677;52.224;7.484;2024-02-21T15:36:12;11.00;73.60
29777;DHT22;16677;52.224;7.484;2024-02-21T15:38:39;10.90;98.10
29777;DHT22;16677;52.224;7.484;2024-02-21T15:41:06;11.00;96.40
29777;DHT22;16677;52.224;7.484;2024-02-21T15:43:34;10.90;27.80
29777;DHT22;16677;52.224;7.484;2024-02-21T15:46:01;10.90;99.90
29777;DHT22;16677;52.224;7.484;2024-02-21T15:48:28;10.80;99.90
29777;DHT22;16677;52.224;7.484;2024-02-21T15:50:55;10.80;99.90
29777;DHT22;16677;52.224;7.484;2024-02-21T15:53:21;10.80;1.00
29777;DHT22;16677;52.224;7.484;2024-02-21T15:55:49;10.80;1.00
29777;DHT22;16677;52.224;7.484;2024-02-21T15:58:16;10.80;1.00
29777;DHT22;16677;52.224;7.484;2024-02-21T16:00:46;10.80;1.00
29777;DHT22;16677;52.224;7.484;2024-02-21T16:03:12;10.80;1.00
29777;DHT22;16677;52.224;7.484;2024-02-21T16:05:41;10.80;1.00